sensor_id;sensor_type;location;lat;lon;timestamp;temperature;humidity
1700;DHT22;847;48.058;7.810;2023-01-23T02:41:12;1.00;99.00
1700;DHT22;847;48.058;7.810;2023-01-23T04:07:57;1.30;99.00
1700;DHT22;847;48.058;7.810;2023-01-23T06:04:21;1.50;99.00
1700;DHT22;847;48.058;7.810;2023-01-23T06:06:50;1.50;99.00
1700;DHT22;847;48.058;7.810;2023-01-23T06:09:20;1.50;99.00
1700;DHT22;847;48.058;7.810;2023-01-23T06:11:47;1.60;99.00
1700;DHT22;847;48.058;7.810;2023-01-23T06:14:14;1.60;99.00
1700;DHT22;847;48.058;7.810;2023-01-23T06:16:42;1.60;99.00
1700;DHT22;847;48.058;7.810;2023-01-23T06:19:12;1.70;99.00
1700;DHT22;847;48.058;7.810;2023-01-23T06:21:43;1.70;99.00
1700;DHT22;847;48.058;7.810;2023-01-23T06:24:10;1.60;99.00
1700;DHT22;847;48.058;7.810;2023-01-23T06:26:38;1.60;99.00
1700;DHT22;847;48.058;7.810;2023-01-23T06:29:06;1.60;99.00
1700;DHT22;847;48.058;7.810;2023-01-23T06:31:34;1.60;99.00
1700;DHT22;847;48.058;7.810;2023-01-23T06:34:02;1.70;95.50
1700;DHT22;847;48.058;7.810;2023-01-23T06:36:29;1.80;93.50
1700;DHT22;847;48.058;7.810;2023-01-23T06:41:35;1.80;91.60
1700;DHT22;847;48.058;7.810;2023-01-23T06:44:02;1.90;91.60
1700;DHT22;847;48.058;7.810;2023-01-23T06:46:28;1.90;91.00
1700;DHT22;847;48.058;7.810;2023-01-23T06:48:55;1.80;90.50
1700;DHT22;847;48.058;7.810;2023-01-23T06:51:22;1.90;90.70
1700;DHT22;847;48.058;7.810;2023-01-23T06:53:49;1.90;90.60
1700;DHT22;847;48.058;7.810;2023-01-23T06:56:16;1.90;90.00
1700;DHT22;847;48.058;7.810;2023-01-23T06:58:45;1.90;90.30
1700;DHT22;847;48.058;7.810;2023-01-23T07:01:14;1.90;89.20
1700;DHT22;847;48.058;7.810;2023-01-23T07:06:16;1.90;90.00
1700;DHT22;847;48.058;7.810;2023-01-23T07:08:43;2.00;89.40
1700;DHT22;847;48.058;7.810;2023-01-23T07:11:13;2.00;89.70
1700;DHT22;847;48.058;7.810;2023-01-23T07:21:30;2.00;89.90
1700;DHT22;847;48.058;7.810;2023-01-23T08:05:24;2.10;88.90
1700;DHT22;847;48.058;7.810;2023-01-23T08:07:51;2.10;88.80
1700;DHT22;847;48.058;7.810;2023-01-23T08:20:40;2.20;88.80
1700;DHT22;847;48.058;7.810;2023-01-23T08:28:18;2.30;89.30
1700;DHT22;847;48.058;7.810;2023-01-23T08:43:46;2.30;90.10
1700;DHT22;847;48.058;7.810;2023-01-23T09:19:54;2.50;88.40
1700;DHT22;847;48.058;7.810;2023-01-23T09:31:02;2.60;89.50
1700;DHT22;847;48.058;7.810;2023-01-23T09:38:41;2.60;87.90
1700;DHT22;847;48.058;7.810;2023-01-23T09:41:13;2.60;88.40
1700;DHT22;847;48.058;7.810;2023-01-23T09:48:59;2.80;86.90
1700;DHT22;847;48.058;7.810;2023-01-23T10:17:28;2.90;87.60
1700;DHT22;847;48.058;7.810;2023-01-23T10:20:09;2.90;87.20
1700;DHT22;847;48.058;7.810;2023-01-23T10:22:45;2.90;87.00
1700;DHT22;847;48.058;7.810;2023-01-23T10:25:16;3.00;88.00
1700;DHT22;847;48.058;7.810;2023-01-23T10:27:46;3.00;88.40
1700;DHT22;847;48.058;7.810;2023-01-23T10:30:23;3.00;88.30
1700;DHT22;847;48.058;7.810;2023-01-23T10:32:56;3.00;88.40
1700;DHT22;847;48.058;7.810;2023-01-23T10:35:28;3.00;88.40
1700;DHT22;847;48.058;7.810;2023-01-23T10:38:00;3.00;88.50
1700;DHT22;847;48.058;7.810;2023-01-23T10:40:28;3.00;89.20
1700;DHT22;847;48.058;7.810;2023-01-23T10:43:14;3.00;89.30
1700;DHT22;847;48.058;7.810;2023-01-23T10:45:41;3.00;89.30
1700;DHT22;847;48.058;7.810;2023-01-23T10:48:38;3.00;89.10
1700;DHT22;847;48.058;7.810;2023-01-23T10:51:23;3.00;89.10
1700;DHT22;847;48.058;7.810;2023-01-23T10:54:02;3.00;89.20
1700;DHT22;847;48.058;7.810;2023-01-23T10:56:30;3.00;88.90
1700;DHT22;847;48.058;7.810;2023-01-23T10:58:59;3.10;89.50
1700;DHT22;847;48.058;7.810;2023-01-23T11:01:29;3.10;89.40
1700;DHT22;847;48.058;7.810;2023-01-23T11:04:09;3.10;89.50
1700;DHT22;847;48.058;7.810;2023-01-23T11:06:36;3.10;89.50
1700;DHT22;847;48.058;7.810;2023-01-23T11:09:07;3.10;88.40
1700;DHT22;847;48.058;7.810;2023-01-23T11:11:44;3.10;88.10
1700;DHT22;847;48.058;7.810;2023-01-23T11:14:24;3.20;88.40
1700;DHT22;847;48.058;7.810;2023-01-23T11:16:59;3.20;88.20
1700;DHT22;847;48.058;7.810;2023-01-23T11:19:30;3.30;88.60
1700;DHT22;847;48.058;7.810;2023-01-23T11:21:58;3.30;88.10
1700;DHT22;847;48.058;7.810;2023-01-23T11:24:32;3.30;87.50
1700;DHT22;847;48.058;7.810;2023-01-23T11:27:00;3.30;87.80
1700;DHT22;847;48.058;7.810;2023-01-23T11:29:28;3.40;88.20
1700;DHT22;847;48.058;7.810;2023-01-23T11:31:58;3.40;87.50
1700;DHT22;847;48.058;7.810;2023-01-23T11:34:33;3.50;87.60
1700;DHT22;847;48.058;7.810;2023-01-23T11:37:08;3.50;87.10
1700;DHT22;847;48.058;7.810;2023-01-23T11:39:46;3.50;87.00
1700;DHT22;847;48.058;7.810;2023-01-23T11:42:14;3.60;87.50
1700;DHT22;847;48.058;7.810;2023-01-23T11:44:42;3.60;87.30
1700;DHT22;847;48.058;7.810;2023-01-23T11:47:33;3.60;87.10
1700;DHT22;847;48.058;7.810;2023-01-23T11:50:26;3.60;87.10
1700;DHT22;847;48.058;7.810;2023-01-23T11:53:00;3.60;87.30
1700;DHT22;847;48.058;7.810;2023-01-23T11:55:44;3.60;87.70
1700;DHT22;847;48.058;7.810;2023-01-23T11:58:30;3.60;88.30
1700;DHT22;847;48.058;7.810;2023-01-23T12:01:06;3.60;88.20
1700;DHT22;847;48.058;7.810;2023-01-23T12:04:00;3.60;87.50
1700;DHT22;847;48.058;7.810;2023-01-23T12:06:39;3.70;87.80
1700;DHT22;847;48.058;7.810;2023-01-23T12:09:12;3.80;88.20
1700;DHT22;847;48.058;7.810;2023-01-23T12:11:51;3.80;87.40
1700;DHT22;847;48.058;7.810;2023-01-23T12:14:25;3.80;87.20
1700;DHT22;847;48.058;7.810;2023-01-23T12:17:07;3.80;87.30
1700;DHT22;847;48.058;7.810;2023-01-23T12:19:58;3.80;87.40
1700;DHT22;847;48.058;7.810;2023-01-23T12:22:34;3.80;88.00
1700;DHT22;847;48.058;7.810;2023-01-23T12:25:10;3.90;88.00
1700;DHT22;847;48.058;7.810;2023-01-23T12:27:43;3.90;88.40
1700;DHT22;847;48.058;7.810;2023-01-23T12:33:05;3.80;88.00
1700;DHT22;847;48.058;7.810;2023-01-23T12:35:46;3.80;87.70
1700;DHT22;847;48.058;7.810;2023-01-23T12:38:29;3.70;87.90
1700;DHT22;847;48.058;7.810;2023-01-23T13:09:35;3.80;89.60
1700;DHT22;847;48.058;7.810;2023-01-23T13:40:36;3.80;90.70
1700;DHT22;847;48.058;7.810;2023-01-23T13:48:44;3.80;90.90
1700;DHT22;847;48.058;7.810;2023-01-23T15:03:40;4.00;93.60
1700;DHT22;847;48.058;7.810;2023-01-23T15:47:42;3.60;96.40
1700;DHT22;847;48.058;7.810;2023-01-23T16:39:23;3.10;98.80
1700;DHT22;847;48.058;7.810;2023-01-23T16:41:52;3.10;98.60
1700;DHT22;847;48.058;7.810;2023-01-23T16:44:21;3.10;98.80
1700;DHT22;847;48.058;7.810;2023-01-23T16:54:35;3.20;98.90
1700;DHT22;847;48.058;7.810;2023-01-23T17:02:18;3.10;99.00
1700;DHT22;847;48.058;7.810;2023-01-23T17:09:57;3.20;99.00
1700;DHT22;847;48.058;7.810;2023-01-23T17:12:35;3.00;99.00
1700;DHT22;847;48.058;7.810;2023-01-23T17:22:49;2.90;99.00
1700;DHT22;847;48.058;7.810;2023-01-23T17:25:19;3.00;99.00
1700;DHT22;847;48.058;7.810;2023-01-23T17:27:47;3.00;99.00
1700;DHT22;847;48.058;7.810;2023-01-23T17:32:53;3.00;99.00
1700;DHT22;847;48.058;7.810;2023-01-23T17:35:27;3.10;99.00
1700;DHT22;847;48.058;7.810;2023-01-23T17:37:59;3.00;99.00
1700;DHT22;847;48.058;7.810;2023-01-23T17:40:31;3.00;99.00
1700;DHT22;847;48.058;7.810;2023-01-23T17:43:00;3.00;99.00
1700;DHT22;847;48.058;7.810;2023-01-23T17:45:30;3.00;99.00
1700;DHT22;847;48.058;7.810;2023-01-23T17:47:58;3.00;99.00
1700;DHT22;847;48.058;7.810;2023-01-23T17:58:14;3.20;99.00
1700;DHT22;847;48.058;7.810;2023-01-23T18:00:42;3.20;99.00
1700;DHT22;847;48.058;7.810;2023-01-23T18:03:12;3.30;99.00
1700;DHT22;847;48.058;7.810;2023-01-23T18:23:49;3.00;99.00
1700;DHT22;847;48.058;7.810;2023-01-23T18:41:57;3.00;99.00
1700;DHT22;847;48.058;7.810;2023-01-23T19:39:17;2.80;99.00
1700;DHT22;847;48.058;7.810;2023-01-23T19:41:45;2.80;99.00
1700;DHT22;847;48.058;7.810;2023-01-23T19:54:36;3.00;99.00
1700;DHT22;847;48.058;7.810;2023-01-23T20:21:58;2.90;99.00
1700;DHT22;847;48.058;7.810;2023-01-23T20:24:25;2.90;99.00
1700;DHT22;847;48.058;7.810;2023-01-23T20:26:52;2.90;99.00
1700;DHT22;847;48.058;7.810;2023-01-23T20:37:02;3.00;99.00
1700;DHT22;847;48.058;7.810;2023-01-23T21:30:26;2.80;99.00
1700;DHT22;847;48.058;7.810;2023-01-23T21:35:28;2.90;99.00
1700;DHT22;847;48.058;7.810;2023-01-23T21:37:55;3.00;99.00
1700;DHT22;847;48.058;7.810;2023-01-23T21:45:35;3.40;99.00
1700;DHT22;847;48.058;7.810;2023-01-23T22:03:36;3.80;99.00
1700;DHT22;847;48.058;7.810;2023-01-23T22:13:47;3.70;99.00
1700;DHT22;847;48.058;7.810;2023-01-23T22:26:37;3.80;99.00
1700;DHT22;847;48.058;7.810;2023-01-23T22:29:04;3.80;99.00
1700;DHT22;847;48.058;7.810;2023-01-23T22:31:31;3.80;99.00
1700;DHT22;847;48.058;7.810;2023-01-23T22:41:46;3.70;99.00
1700;DHT22;847;48.058;7.810;2023-01-23T22:44:14;3.80;99.00
1700;DHT22;847;48.058;7.810;2023-01-23T22:46:42;3.90;99.00
1700;DHT22;847;48.058;7.810;2023-01-23T22:49:09;3.90;99.00
1700;DHT22;847;48.058;7.810;2023-01-23T22:51:36;3.70;99.00
1700;DHT22;847;48.058;7.810;2023-01-23T22:54:03;3.50;99.00
1700;DHT22;847;48.058;7.810;2023-01-23T22:56:32;3.30;99.00
1700;DHT22;847;48.058;7.810;2023-01-23T22:59:01;3.20;99.00
1700;DHT22;847;48.058;7.810;2023-01-23T23:01:28;3.10;99.00
1700;DHT22;847;48.058;7.810;2023-01-23T23:03:58;3.00;99.00
1700;DHT22;847;48.058;7.810;2023-01-23T23:06:26;2.90;99.00
1700;DHT22;847;48.058;7.810;2023-01-23T23:08:54;2.80;99.00
1700;DHT22;847;48.058;7.810;2023-01-23T23:11:25;2.80;99.00
1700;DHT22;847;48.058;7.810;2023-01-23T23:13:55;2.70;99.00
1700;DHT22;847;48.058;7.810;2023-01-23T23:16:26;2.60;99.00
1700;DHT22;847;48.058;7.810;2023-01-23T23:18:58;2.60;99.00
1700;DHT22;847;48.058;7.810;2023-01-23T23:21:30;2.60;99.00
1700;DHT22;847;48.058;7.810;2023-01-23T23:23:58;2.60;99.00
1700;DHT22;847;48.058;7.810;2023-01-23T23:26:28;2.60;99.00
1700;DHT22;847;48.058;7.810;2023-01-23T23:28:59;2.60;99.00
1700;DHT22;847;48.058;7.810;2023-01-23T23:31:29;2.60;99.00
1700;DHT22;847;48.058;7.810;2023-01-23T23:33:56;2.60;99.00
1700;DHT22;847;48.058;7.810;2023-01-23T23:36:24;2.50;99.00
1700;DHT22;847;48.058;7.810;2023-01-23T23:38:54;2.50;99.00
1700;DHT22;847;48.058;7.810;2023-01-23T23:41:21;2.50;99.00
1700;DHT22;847;48.058;7.810;2023-01-23T23:43:49;2.50;99.00
1700;DHT22;847;48.058;7.810;2023-01-23T23:46:18;2.50;99.00
1700;DHT22;847;48.058;7.810;2023-01-23T23:48:49;2.50;99.00
1700;DHT22;847;48.058;7.810;2023-01-23T23:51:17;2.50;99.00
1700;DHT22;847;48.058;7.810;2023-01-23T23:53:45;2.40;99.00
1700;DHT22;847;48.058;7.810;2023-01-23T23:56:18;2.40;99.00
1700;DHT22;847;48.058;7.810;2023-01-23T23:58:47;2.50;99.00
